| time (UTC) | temp F | wind direction | speed MPH | gust MPH | rain 1hr in | rain 24hr in | rain mn in | humidity % | barometer mb |
| 20260903230005 | 63 | 269 | 7.0 | 11.0 | 0.00 | 0.21 | 0.19 | 63 | 1010.0 |
| 20260903224507 | 63 | 267 | 3.0 | 7.0 | 0.00 | 0.21 | 0.19 | 62 | 1010.1 |
| 20260903223042 | 64 | 288 | 2.0 | 4.0 | 0.00 | 0.21 | 0.19 | 60 | 1010.1 |
| 20260903221526 | 63 | 236 | 0.0 | 6.0 | 0.00 | 0.21 | 0.19 | 62 | 1009.9 |
| 20260903220045 | 63 | 256 | 3.0 | 8.0 | 0.00 | 0.21 | 0.19 | 63 | 1010.1 |
| 20260903214529 | 62 | 234 | 5.0 | 15.0 | 0.00 | 0.21 | 0.19 | 63 | 1010.2 |
| 20260903213007 | 62 | 152 | 6.0 | 16.0 | 0.00 | 0.21 | 0.19 | 64 | 1010.4 |
| 20260903211516 | 62 | 183 | 8.0 | 18.0 | 0.00 | 0.22 | 0.19 | 64 | 1010.5 |
| 20260903210035 | 63 | 217 | 6.0 | 14.0 | 0.00 | 0.23 | 0.19 | 66 | 1010.3 |
| 20260903204530 | 63 | 209 | 9.0 | 14.0 | 0.00 | 0.23 | 0.19 | 66 | 1010.2 |
| 20260903203031 | 63 | 173 | 4.0 | 12.0 | 0.00 | 0.24 | 0.19 | 69 | 1010.2 |
| 20260903201515 | 62 | 134 | 7.0 | 13.0 | 0.00 | 0.27 | 0.19 | 70 | 1010.3 |
| 20260903200036 | 62 | 153 | 8.0 | 12.0 | 0.00 | 0.32 | 0.19 | 68 | 1010.3 |
| 20260903194537 | 62 | 180 | 7.0 | 17.0 | 0.00 | 0.37 | 0.19 | 69 | 1010.3 |
| 20260903193030 | 61 | 160 | 5.0 | 12.0 | 0.10 | 0.39 | 0.19 | 79 | 1010.3 |
| 20260903191535 | 60 | 233 | 4.0 | 11.0 | 0.10 | 0.40 | 0.19 | 80 | 1010.6 |
| 20260903190054 | 59 | 189 | 3.0 | 10.0 | 0.10 | 0.42 | 0.19 | 83 | 1010.5 |
| 20260903184537 | 58 | 237 | 10.0 | 21.0 | 0.10 | 0.43 | 0.19 | 1010.4 | |
| 20260903183038 | 62 | 99 | 6.0 | 12.0 | 0.00 | 0.34 | 0.09 | 74 | 1010.1 |
| 20260903181508 | 62 | 82 | 6.0 | 12.0 | 0.00 | 0.36 | 0.09 | 77 | 1010.3 |
| 20260903180014 | 61 | 68 | 6.0 | 11.0 | 0.00 | 0.38 | 0.09 | 80 | 1010.4 |
| 20260903174523 | 61 | 59 | 8.0 | 12.0 | 0.00 | 0.40 | 0.09 | 80 | 1010.3 |
| 20260903173027 | 59 | 88 | 5.0 | 10.0 | 0.00 | 0.40 | 0.09 | 84 | 1010.4 |
| 20260903171514 | 58 | 84 | 5.0 | 8.0 | 0.00 | 0.40 | 0.09 | 83 | 1010.6 |
| 20260903170015 | 57 | 89 | 4.0 | 6.0 | 0.00 | 0.40 | 0.09 | 1010.7 | |
| 20260903164534 | 57 | 73 | 2.0 | 5.0 | 0.01 | 0.40 | 0.09 | 87 | 1010.8 |
| 20260903163024 | 55 | 65 | 4.0 | 8.0 | 0.01 | 0.40 | 0.09 | 89 | 1010.8 |
| 20260903161533 | 55 | 96 | 4.0 | 7.0 | 0.02 | 0.40 | 0.09 | 89 | 1010.8 |
| 20260903160030 | 55 | 70 | 1.0 | 3.0 | 0.02 | 0.40 | 0.09 | 89 | 1010.9 |
| 20260903154512 | 55 | 104 | 1.0 | 4.0 | 0.03 | 0.39 | 0.08 | 89 | 1010.8 |
| 20260903153032 | 55 | 86 | 2.0 | 3.0 | 0.04 | 0.39 | 0.08 | 89 | 1010.7 |
| 20260903151541 | 55 | 68 | 1.0 | 3.0 | 0.03 | 0.38 | 0.07 | 89 | 1010.8 |
| 20260903150031 | 54 | 98 | 1.0 | 3.0 | 0.04 | 0.38 | 0.07 | 88 | 1010.4 |
| 20260903144510 | 55 | 129 | 2.0 | 8.0 | 0.03 | 0.36 | 0.05 | 86 | 1010.7 |
| 20260903143015 | 54 | 138 | 2.0 | 4.0 | 0.02 | 0.35 | 0.04 | 87 | 1010.5 |
| 20260903141536 | 54 | 88 | 3.0 | 4.0 | 0.02 | 0.35 | 0.04 | 87 | 1010.1 |
| 20260903140029 | 54 | 56 | 1.0 | 2.0 | 0.01 | 0.34 | 0.03 | 86 | 1010.0 |
| 20260903134544 | 55 | 56 | 0.0 | 0.0 | 0.00 | 0.33 | 0.02 | 86 | 1010.0 |
| 20260903133018 | 55 | 82 | 2.0 | 6.0 | 0.00 | 0.33 | 0.02 | 84 | 1010.0 |
| 20260903131523 | 55 | 91 | 0.0 | 4.0 | 0.00 | 0.33 | 0.02 | 84 | 1010.0 |
| 20260903130027 | 54 | 112 | 1.0 | 3.0 | 0.00 | 0.33 | 0.02 | 85 | 1009.9 |
| 20260903124548 | 54 | 113 | 2.0 | 4.0 | 0.00 | 0.33 | 0.02 | 87 | 1009.9 |
| 20260903123013 | 54 | 89 | 1.0 | 3.0 | 0.00 | 0.33 | 0.02 | 87 | 1009.9 |
| 20260903121537 | 53 | 89 | 2.0 | 4.0 | 0.00 | 0.33 | 0.02 | 87 | 1010.0 |
| 20260903120025 | 54 | 69 | 2.0 | 3.0 | 0.00 | 0.33 | 0.02 | 87 | 1010.2 |
| 20260903114504 | 55 | 86 | 2.0 | 4.0 | 0.00 | 0.33 | 0.02 | 81 | 1010.1 |
| 20260903113015 | 56 | 107 | 3.0 | 6.0 | 0.00 | 0.33 | 0.02 | 81 | 1010.0 |
| 20260903111512 | 56 | 163 | 2.0 | 5.0 | 0.00 | 0.33 | 0.02 | 81 | 1010.1 |
| 20260903110023 | 56 | 193 | 1.0 | 6.0 | 0.00 | 0.33 | 0.02 | 82 | 1010.2 |
| 20260903104533 | 56 | 114 | 0.0 | 5.0 | 0.00 | 0.33 | 0.02 | 82 | 1010.1 |
| 20260903103007 | 56 | 169 | 2.0 | 5.0 | 0.00 | 0.33 | 0.02 | 85 | 1010.1 |
| 20260903101536 | 55 | 146 | 1.0 | 2.0 | 0.00 | 0.33 | 0.02 | 86 | 1009.9 |
| 20260903100023 | 55 | 112 | 0.0 | 2.0 | 0.00 | 0.33 | 0.02 | 86 | 1009.9 |
| 20260903094526 | 56 | 117 | 0.0 | 3.0 | 0.00 | 0.33 | 0.02 | 85 | 1010.0 |
| 20260903093030 | 56 | 113 | 1.0 | 3.0 | 0.01 | 0.33 | 0.02 | 86 | 1009.8 |
| 20260903091513 | 56 | 121 | 1.0 | 3.0 | 0.01 | 0.33 | 0.02 | 86 | 1010.1 |
| 20260903090038 | 56 | 164 | 1.0 | 5.0 | 0.01 | 0.33 | 0.02 | 86 | 1009.9 |
| 20260903084522 | 56 | 179 | 3.0 | 7.0 | 0.02 | 0.33 | 0.02 | 85 | 1010.1 |
| 20260903083028 | 56 | 179 | 5.0 | 10.0 | 0.01 | 0.32 | 0.01 | 86 | 1010.1 |
| 20260903081528 | 56 | 159 | 5.0 | 10.0 | 0.01 | 0.32 | 0.01 | 86 | 1010.1 |
| 20260903080015 | 56 | 225 | 4.0 | 13.0 | 0.01 | 0.32 | 0.01 | 85 | 1010.1 |
| 20260903074537 | 57 | 155 | 4.0 | 12.0 | 0.00 | 0.31 | 0.00 | 84 | 1010.1 |
| 20260903073038 | 57 | 198 | 6.0 | 15.0 | 0.01 | 0.31 | 0.00 | 84 | 1010.1 |
| 20260903071531 | 57 | 194 | 7.0 | 15.0 | 0.01 | 0.31 | 0.00 | 85 | 1009.8 |
| 20260903070012 | 57 | 200 | 6.0 | 14.0 | 0.01 | 0.31 | 0.00 | 85 | 1009.9 |
| 20260903064518 | 57 | 195 | 7.0 | 16.0 | 0.01 | 0.31 | 0.31 | 83 | 1010.0 |
| 20260903063022 | 57 | 192 | 3.0 | 10.0 | 0.00 | 0.30 | 0.30 | 82 | 1010.0 |
| 20260903061530 | 57 | 186 | 2.0 | 11.0 | 0.00 | 0.30 | 0.30 | 82 | 1009.9 |
| 20260903060008 | 57 | 198 | 3.0 | 7.0 | 0.00 | 0.30 | 0.30 | 83 | 1009.8 |
| 20260903054507 | 57 | 187 | 1.0 | 9.0 | 0.00 | 0.30 | 0.30 | 83 | 1010.0 |
| 20260903053008 | 57 | 202 | 4.0 | 9.0 | 0.00 | 0.30 | 0.30 | 84 | 1010.0 |
| 20260903051509 | 57 | 208 | 4.0 | 9.0 | 0.00 | 0.30 | 0.30 | 84 | 1010.0 |
| 20260903050010 | 57 | 196 | 6.0 | 10.0 | 0.00 | 0.30 | 0.30 | 84 | 1009.6 |
| 20260903044508 | 58 | 208 | 4.0 | 10.0 | 0.00 | 0.30 | 0.30 | 84 | 1009.8 |
| 20260903043009 | 58 | 184 | 6.0 | 9.0 | 0.00 | 0.30 | 0.30 | 83 | 1009.6 |
| 20260903041509 | 58 | 198 | 6.0 | 9.0 | 0.00 | 0.30 | 0.30 | 84 | 1009.5 |
| 20260903040010 | 58 | 156 | 6.0 | 12.0 | 0.00 | 0.30 | 0.30 | 85 | 1009.1 |
| 20260903034517 | 58 | 178 | 7.0 | 13.0 | 0.00 | 0.30 | 0.30 | 85 | 1009.1 |
| 20260903033006 | 58 | 167 | 5.0 | 10.0 | 0.00 | 0.30 | 0.30 | 86 | 1009.0 |
| 20260903031510 | 0 | 157 | 5.0 | 9.0 | 0.00 | 0.30 | 0.30 | 86 | 1009.0 |
| 20260903030013 | 59 | 180 | 5.0 | 13.0 | 0.00 | 0.30 | 0.30 | 85 | 1008.6 |
| 20260903024507 | 59 | 156 | 7.0 | 11.0 | 0.00 | 0.30 | 0.30 | 85 | 1008.6 |
| 20260903023011 | 59 | 191 | 3.0 | 7.0 | 0.00 | 0.30 | 0.30 | 86 | 1008.5 |
| 20260903021513 | 60 | 157 | 6.0 | 10.0 | 0.00 | 0.30 | 0.30 | 86 | 1008.4 |
| 20260903020031 | 59 | 169 | 5.0 | 9.0 | 0.00 | 0.30 | 0.30 | 86 | 1007.8 |
| 20260903014515 | 59 | 213 | 3.0 | 8.0 | 0.00 | 0.30 | 0.30 | 86 | 1007.9 |
| 20260903013016 | 59 | 183 | 4.0 | 9.0 | 0.00 | 0.30 | 0.30 | 1007.8 | |
| 20260903011513 | 60 | 173 | 5.0 | 11.0 | 0.00 | 0.30 | 0.30 | 1007.9 | |
| 20260903010014 | 60 | 196 | 5.0 | 10.0 | 0.01 | 0.30 | 0.30 | 86 | 1007.8 |
| 20260903004514 | 60 | 173 | 3.0 | 7.0 | 0.01 | 0.30 | 0.30 | 87 | 1007.4 |
| 20260903003017 | 60 | 209 | 3.0 | 6.0 | 0.01 | 0.30 | 0.30 | 87 | 1007.4 |
| 20260903001511 | 59 | 231 | 5.0 | 11.0 | 0.01 | 0.30 | 0.30 | 87 | 1007.3 |
| 20260903000016 | 60 | 223 | 6.0 | 10.0 | 0.00 | 0.29 | 0.29 | 87 | 1007.5 |
| 20260902234507 | 60 | 232 | 4.0 | 11.0 | 0.00 | 0.29 | 0.29 | 86 | 1007.4 |
| 20260902233011 | 60 | 192 | 5.0 | 12.0 | 0.00 | 0.29 | 0.29 | 85 | 1007.2 |
| 20260902231505 | 60 | 182 | 6.0 | 10.0 | 0.00 | 0.29 | 0.29 | 1007.3 |